Time;durP1;ratioP1;P1;durP2;ratioP2;P2;SDS_P1;SDS_P2;PMS_P1;PMS_P2;Temp;Humidity;BMP_temperature;BMP_pressure;BME280_temperature;BME280_humidity;BME280_pressure;Samples;Min_cycle;Max_cycle;Signal;HPM_P1;HPM_P2
2024/02/15 00:00:43;;;;;;;7.63;5.80;;;;;;;;;;6246135;23;20189;-79
2024/02/15 00:03:15;;;;;;;7.47;6.67;;;;;;;;;;6245047;23;20197;-79
2024/02/15 00:05:43;;;;;;;8.97;6.07;;;;;;;;;;6219064;23;20272;-78
2024/02/15 00:08:10;;;;;;;8.30;7.40;;;;;;;;;;6246433;23;20165;-77
2024/02/15 00:10:37;;;;;;;6.40;5.80;;;;;;;;;;6219749;23;20157;-78
2024/02/15 00:13:06;;;;;;;7.37;6.53;;;;;;;;;;6246476;23;20232;-78
2024/02/15 00:15:34;;;;;;;8.93;8.03;;;;;;;;;;6246531;23;20192;-78
2024/02/15 00:18:02;;;;;;;7.80;6.97;;;;;;;;;;6246697;23;20231;-78
2024/02/15 00:20:33;;;;;;;7.10;6.40;;;;;;;;;;6246320;23;20149;-77
2024/02/15 00:23:04;;;;;;;6.47;5.80;;;;;;;;;;6245673;23;20172;-78
2024/02/15 00:25:30;;;;;;;8.10;6.57;;;;;;;;;;6246350;23;20161;-77
2024/02/15 00:27:57;;;;;;;7.80;6.67;;;;;;;;;;6245350;23;20173;-78
2024/02/15 00:30:34;;;;;;;7.00;6.30;;;;;;;;;;6246343;23;20184;-78
2024/02/15 00:33:02;;;;;;;8.63;6.63;;;;;;;;;;6219560;23;20252;-79
2024/02/15 00:35:35;;;;;;;7.97;6.73;;;;;;;;;;6246494;23;20141;-77
2024/02/15 00:38:03;;;;;;;7.77;7.03;;;;;;;;;;6246237;23;20181;-78
2024/02/15 00:40:30;;;;;;;11.80;8.03;;;;;;;;;;6246119;23;20164;-78
2024/02/15 00:42:56;;;;;;;9.60;7.40;;;;;;;;;;6245983;23;20165;-78
2024/02/15 00:45:23;;;;;;;8.47;7.60;;;;;;;;;;6245987;23;20165;-79
2024/02/15 00:47:50;;;;;;;10.97;7.93;;;;;;;;;;6246042;23;20217;-78
2024/02/15 00:50:19;;;;;;;8.90;7.47;;;;;;;;;;6245781;23;20184;-77
2024/02/15 00:52:49;;;;;;;8.30;7.47;;;;;;;;;;6218883;23;20215;-77
2024/02/15 00:55:19;;;;;;;9.00;7.33;;;;;;;;;;6246324;23;20165;-78
2024/02/15 00:57:50;;;;;;;8.27;7.00;;;;;;;;;;6246210;23;20149;-77
2024/02/15 01:00:20;;;;;;;8.17;7.27;;;;;;;;;;6246158;23;20160;-77
2024/02/15 01:02:47;;;;;;;8.10;7.30;;;;;;;;;;6245662;23;20193;-78
2024/02/15 01:05:15;;;;;;;9.53;7.60;;;;;;;;;;6246224;23;20231;-77
2024/02/15 01:07:44;;;;;;;8.87;7.33;;;;;;;;;;6245920;23;20187;-77
2024/02/15 01:10:17;;;;;;;8.73;7.73;;;;;;;;;;6244975;23;20242;-78
2024/02/15 01:12:44;;;;;;;8.33;7.27;;;;;;;;;;6244735;23;20254;-77
2024/02/15 01:15:18;;;;;;;8.50;7.50;;;;;;;;;;6244953;23;20161;-78
2024/02/15 01:17:47;;;;;;;9.23;7.37;;;;;;;;;;6217999;23;20196;-78
2024/02/15 01:20:14;;;;;;;9.57;7.40;;;;;;;;;;6245090;23;20235;-78
2024/02/15 01:22:43;;;;;;;9.43;7.17;;;;;;;;;;6218850;23;20240;-77
2024/02/15 01:25:10;;;;;;;7.80;7.00;;;;;;;;;;6245141;23;20157;-78
2024/02/15 01:27:40;;;;;;;9.57;7.70;;;;;;;;;;6245066;23;20161;-78
2024/02/15 01:30:08;;;;;;;9.07;8.10;;;;;;;;;;6244782;23;20161;-77
2024/02/15 01:32:35;;;;;;;10.03;8.03;;;;;;;;;;6245186;23;20169;-77
2024/02/15 01:35:04;;;;;;;8.73;6.90;;;;;;;;;;6220835;23;20165;-78
2024/02/15 01:37:33;;;;;;;8.77;7.07;;;;;;;;;;6246968;23;20174;-77
2024/02/15 01:40:06;;;;;;;8.63;6.63;;;;;;;;;;6246984;23;20196;-80
2024/02/15 01:42:36;;;;;;;8.37;6.67;;;;;;;;;;6246466;23;20165;-79
2024/02/15 01:45:06;;;;;;;7.57;6.37;;;;;;;;;;6247173;23;20491;-77
2024/02/15 01:47:34;;;;;;;8.03;6.23;;;;;;;;;;6247121;23;20152;-77
2024/02/15 01:50:03;;;;;;;8.27;6.00;;;;;;;;;;6246954;23;20161;-77
2024/02/15 01:52:31;;;;;;;7.57;5.77;;;;;;;;;;6246865;23;20228;-79
2024/02/15 01:55:07;;;;;;;7.13;5.40;;;;;;;;;;6247968;23;20165;-79
2024/02/15 01:57:35;;;;;;;6.67;5.43;;;;;;;;;;6247915;23;20145;-79
2024/02/15 02:00:02;;;;;;;5.97;5.33;;;;;;;;;;6247643;23;20183;-79
2024/02/15 02:02:35;;;;;;;6.97;5.53;;;;;;;;;;6247646;23;20541;-78
2024/02/15 02:05:02;;;;;;;5.80;5.20;;;;;;;;;;6247518;23;20164;-79
2024/02/15 02:07:29;;;;;;;8.67;5.17;;;;;;;;;;6247757;23;20232;-79
2024/02/15 02:09:59;;;;;;;7.47;5.40;;;;;;;;;;6247511;23;20169;-79
2024/02/15 02:12:28;;;;;;;6.53;5.80;;;;;;;;;;6247452;23;20231;-79
2024/02/15 02:14:57;;;;;;;5.80;5.00;;;;;;;;;;6247697;23;20165;-79
2024/02/15 02:17:27;;;;;;;5.70;5.13;;;;;;;;;;6247688;23;20156;-79
2024/02/15 02:19:57;;;;;;;6.27;5.20;;;;;;;;;;6247484;23;20165;-78
2024/02/15 02:22:24;;;;;;;6.70;4.93;;;;;;;;;;6220813;23;20221;-79
2024/02/15 02:25:07;;;;;;;6.33;5.00;;;;;;;;;;6247470;23;20206;-79
2024/02/15 02:27:36;;;;;;;5.50;4.70;;;;;;;;;;6247503;23;20145;-79
2024/02/15 02:30:06;;;;;;;5.20;4.60;;;;;;;;;;6247277;23;20161;-79
2024/02/15 02:32:35;;;;;;;5.77;4.60;;;;;;;;;;6247192;23;20624;-79
2024/02/15 02:35:03;;;;;;;5.30;4.80;;;;;;;;;;6247286;23;20172;-79
2024/02/15 02:37:36;;;;;;;5.73;4.90;;;;;;;;;;6247314;23;20159;-79
2024/02/15 02:40:04;;;;;;;5.20;4.60;;;;;;;;;;6220832;23;20167;-79
2024/02/15 02:42:31;;;;;;;5.00;4.50;;;;;;;;;;6220608;23;20168;-79
2024/02/15 02:45:00;;;;;;;4.90;4.40;;;;;;;;;;6247455;23;20157;-79
2024/02/15 02:47:27;;;;;;;6.70;4.30;;;;;;;;;;6247098;23;20164;-79
2024/02/15 02:49:53;;;;;;;4.60;4.17;;;;;;;;;;6219832;23;20479;-79
2024/02/15 02:52:20;;;;;;;4.53;3.97;;;;;;;;;;6246864;23;20183;-79
2024/02/15 02:54:51;;;;;;;4.50;4.10;;;;;;;;;;6247080;23;20145;-80
2024/02/15 02:57:42;;;;;;;5.73;4.30;;;;;;;;;;6220560;23;20172;-79
2024/02/15 03:00:15;;;;;;;4.13;3.73;;;;;;;;;;6247123;23;20211;-79
2024/02/15 03:02:45;;;;;;;4.93;3.90;;;;;;;;;;6219803;23;20200;-79
2024/02/15 03:05:15;;;;;;;5.50;3.90;;;;;;;;;;6246748;23;20155;-79
2024/02/15 03:07:45;;;;;;;5.07;4.10;;;;;;;;;;6219942;23;20183;-79
2024/02/15 03:10:13;;;;;;;4.67;3.70;;;;;;;;;;6247496;23;20172;-79
2024/02/15 03:12:48;;;;;;;4.70;3.60;;;;;;;;;;6247165;23;20169;-80
2024/02/15 03:15:18;;;;;;;5.17;3.70;;;;;;;;;;6220733;23;20181;-79
2024/02/15 03:17:49;;;;;;;4.90;3.60;;;;;;;;;;6247411;23;20230;-79
2024/02/15 03:20:23;;;;;;;3.97;3.57;;;;;;;;;;6247815;23;20161;-79
2024/02/15 03:22:53;;;;;;;4.27;3.50;;;;;;;;;;6221459;23;20146;-80
2024/02/15 03:25:25;;;;;;;4.23;3.73;;;;;;;;;;6247827;23;20223;-79
2024/02/15 03:27:53;;;;;;;6.50;3.60;;;;;;;;;;6247342;23;20144;-79
2024/02/15 03:30:20;;;;;;;4.00;3.60;;;;;;;;;;6220922;23;20207;-79
2024/02/15 03:32:56;;;;;;;4.53;3.80;;;;;;;;;;6246977;23;20180;-79
2024/02/15 03:35:25;;;;;;;5.60;3.80;;;;;;;;;;6247510;23;20199;-79
2024/02/15 03:37:54;;;;;;;4.30;3.70;;;;;;;;;;6247242;23;20165;-79
2024/02/15 03:40:26;;;;;;;3.63;3.30;;;;;;;;;;6247708;23;20157;-79
2024/02/15 03:42:56;;;;;;;6.07;3.60;;;;;;;;;;6247404;23;20219;-79
2024/02/15 03:45:25;;;;;;;4.63;3.60;;;;;;;;;;6220309;23;20161;-78
2024/02/15 03:47:53;;;;;;;4.43;3.50;;;;;;;;;;6220293;23;20597;-79
2024/02/15 03:50:21;;;;;;;4.80;3.90;;;;;;;;;;6247083;23;20221;-79
2024/02/15 03:52:55;;;;;;;5.07;3.33;;;;;;;;;;6246947;23;20176;-78
2024/02/15 03:55:25;;;;;;;4.17;3.40;;;;;;;;;;6220254;23;20165;-78
2024/02/15 03:57:54;;;;;;;3.97;3.10;;;;;;;;;;6220318;23;20188;-78
2024/02/15 04:00:24;;;;;;;5.00;3.43;;;;;;;;;;6246859;23;20199;-79
2024/02/15 04:02:51;;;;;;;4.27;3.33;;;;;;;;;;6247249;22;20211;-78
2024/02/15 04:05:23;;;;;;;4.40;3.60;;;;;;;;;;6246981;23;20169;-79
2024/02/15 04:07:49;;;;;;;3.97;3.50;;;;;;;;;;6247415;23;20157;-79
2024/02/15 04:10:18;;;;;;;3.60;3.07;;;;;;;;;;6246968;23;20168;-79
2024/02/15 04:12:44;;;;;;;3.70;3.10;;;;;;;;;;6247177;23;20185;-78
2024/02/15 04:15:16;;;;;;;4.63;3.10;;;;;;;;;;6246887;23;20168;-79
2024/02/15 04:17:47;;;;;;;3.43;2.80;;;;;;;;;;6247048;23;20171;-79
2024/02/15 04:20:16;;;;;;;3.10;2.77;;;;;;;;;;6247208;23;20600;-79
2024/02/15 04:22:44;;;;;;;3.77;2.83;;;;;;;;;;6246861;23;20165;-79
2024/02/15 04:25:16;;;;;;;3.83;2.47;;;;;;;;;;6246875;23;20158;-78
2024/02/15 04:27:47;;;;;;;2.70;2.40;;;;;;;;;;6247498;23;20206;-79
2024/02/15 04:30:15;;;;;;;2.57;2.37;;;;;;;;;;6246678;23;20160;-79
2024/02/15 04:32:49;;;;;;;3.07;2.60;;;;;;;;;;6246887;23;20197;-79
2024/02/15 04:35:16;;;;;;;4.43;2.50;;;;;;;;;;6246599;23;20641;-78
2024/02/15 04:37:46;;;;;;;2.60;2.27;;;;;;;;;;6246631;23;20218;-78
2024/02/15 04:40:13;;;;;;;2.67;2.37;;;;;;;;;;6220060;23;20200;-79
2024/02/15 04:42:44;;;;;;;3.00;2.37;;;;;;;;;;6247115;23;20244;-79
2024/02/15 04:45:13;;;;;;;2.90;2.23;;;;;;;;;;6246606;23;20161;-80
2024/02/15 04:47:42;;;;;;;3.43;2.47;;;;;;;;;;6246576;23;20180;-80
2024/02/15 04:50:11;;;;;;;2.47;2.27;;;;;;;;;;6246985;23;20168;-78
2024/02/15 04:52:45;;;;;;;2.77;2.30;;;;;;;;;;6246665;23;20169;-79
2024/02/15 04:59:15;;;;;;;2.60;2.00;;;;;;;;;;6246611;23;20179;-79
2024/02/15 05:01:45;;;;;;;2.50;2.00;;;;;;;;;;6219913;22;20153;-79
2024/02/15 05:04:25;;;;;;;2.13;1.93;;;;;;;;;;6215409;23;20263;-79
2024/02/15 05:06:56;;;;;;;2.47;1.90;;;;;;;;;;6246189;23;20227;-79
2024/02/15 05:09:26;;;;;;;3.10;1.60;;;;;;;;;;6246383;23;20180;-80
2024/02/15 05:11:57;;;;;;;2.17;1.97;;;;;;;;;;6246306;23;20608;-79
2024/02/15 05:14:32;;;;;;;2.40;2.10;;;;;;;;;;6245401;23;20145;-79
2024/02/15 05:16:59;;;;;;;2.40;2.20;;;;;;;;;;6246296;23;20149;-79
2024/02/15 05:19:30;;;;;;;2.00;1.83;;;;;;;;;;6219465;23;20172;-80
2024/02/15 05:21:57;;;;;;;3.10;1.97;;;;;;;;;;6195054;23;20177;-79
2024/02/15 05:24:24;;;;;;;2.10;1.90;;;;;;;;;;6246418;23;20612;-79
2024/02/15 05:26:52;;;;;;;2.53;1.67;;;;;;;;;;6246521;23;20235;-80
2024/02/15 05:29:20;;;;;;;2.60;2.20;;;;;;;;;;6219808;23;20169;-80
2024/02/15 05:31:51;;;;;;;2.27;1.97;;;;;;;;;;6246202;23;20161;-79
2024/02/15 05:34:20;;;;;;;3.67;1.97;;;;;;;;;;6247353;23;20267;-79
2024/02/15 05:36:51;;;;;;;3.27;1.70;;;;;;;;;;6244713;23;20169;-80
2024/02/15 05:39:21;;;;;;;3.13;1.90;;;;;;;;;;6218071;23;20176;-79
2024/02/15 05:41:49;;;;;;;1.63;1.50;;;;;;;;;;6246624;23;20150;-80
2024/02/15 05:44:20;;;;;;;1.87;1.67;;;;;;;;;;6245315;23;20161;-79
2024/02/15 05:46:50;;;;;;;1.97;1.70;;;;;;;;;;6246609;23;20145;-80
2024/02/15 05:49:17;;;;;;;1.70;1.60;;;;;;;;;;6246049;23;20172;-80
2024/02/15 05:51:47;;;;;;;2.97;1.77;;;;;;;;;;6245063;23;20223;-79
2024/02/15 05:54:17;;;;;;;1.90;1.60;;;;;;;;;;6193660;23;20192;-79
2024/02/15 05:56:51;;;;;;;2.57;1.80;;;;;;;;;;6220159;23;20145;-79
2024/02/15 05:59:20;;;;;;;2.30;1.60;;;;;;;;;;6194263;23;20165;-79
2024/02/15 06:01:50;;;;;;;1.77;1.50;;;;;;;;;;6217432;22;20208;-79
2024/02/15 06:04:16;;;;;;;1.90;1.70;;;;;;;;;;6246305;23;20152;-80
2024/02/15 06:06:48;;;;;;;2.40;1.60;;;;;;;;;;6219501;23;20260;-80
2024/02/15 06:09:27;;;;;;;2.13;1.93;;;;;;;;;;6219777;23;20173;-79
2024/02/15 06:11:56;;;;;;;1.73;1.60;;;;;;;;;;6246433;23;20593;-79
2024/02/15 06:14:23;;;;;;;2.10;1.90;;;;;;;;;;6246319;23;20263;-79
2024/02/15 06:16:55;;;;;;;1.80;1.70;;;;;;;;;;6219472;23;20173;-80
2024/02/15 06:19:22;;;;;;;2.30;1.80;;;;;;;;;;6247607;23;20168;-80
2024/02/15 06:21:49;;;;;;;2.20;2.00;;;;;;;;;;6248744;23;20164;-80
2024/02/15 06:24:17;;;;;;;2.70;2.10;;;;;;;;;;6221260;23;20177;-80
2024/02/15 06:26:59;;;;;;;2.13;1.70;;;;;;;;;;6248314;23;20157;-80
2024/02/15 06:40:38;;;;;;;2.73;2.30;;;;;;;;;;6220104;23;20188;-79
2024/02/15 06:43:05;;;;;;;2.27;1.63;;;;;;;;;;6221052;23;20176;-79
2024/02/15 06:45:35;;;;;;;2.87;2.20;;;;;;;;;;6248208;23;20203;-79
2024/02/15 06:48:07;;;;;;;2.93;2.20;;;;;;;;;;6222893;23;20154;-80
2024/02/15 06:50:37;;;;;;;2.57;2.33;;;;;;;;;;6248136;23;20150;-80
2024/02/15 06:53:06;;;;;;;4.23;1.90;;;;;;;;;;6222030;23;20177;-79
2024/02/15 06:55:39;;;;;;;2.53;2.20;;;;;;;;;;6248816;23;20171;-82
2024/02/15 06:58:08;;;;;;;3.20;2.40;;;;;;;;;;6247794;23;20615;-79
2024/02/15 07:00:40;;;;;;;2.63;2.17;;;;;;;;;;6247985;23;20169;-80
2024/02/15 07:03:07;;;;;;;2.77;2.37;;;;;;;;;;6248340;23;20200;-80
2024/02/15 07:05:38;;;;;;;2.83;2.40;;;;;;;;;;6247948;23;20179;-79
2024/02/15 07:08:12;;;;;;;2.73;2.30;;;;;;;;;;6247650;23;20181;-80
2024/02/15 07:10:41;;;;;;;2.60;2.10;;;;;;;;;;6221453;23;20160;-80
2024/02/15 07:13:10;;;;;;;3.13;2.57;;;;;;;;;;6247519;23;20252;-79
2024/02/15 07:15:46;;;;;;;3.43;2.20;;;;;;;;;;6220479;23;20173;-80
2024/02/15 07:18:17;;;;;;;2.97;2.30;;;;;;;;;;6247164;23;20161;-79
2024/02/15 07:20:45;;;;;;;3.37;2.50;;;;;;;;;;6221603;23;20232;-80
2024/02/15 07:23:12;;;;;;;3.20;2.30;;;;;;;;;;6195987;23;20223;-80
2024/02/15 07:25:39;;;;;;;3.10;2.67;;;;;;;;;;6220823;23;20165;-79
2024/02/15 07:28:06;;;;;;;2.63;2.30;;;;;;;;;;6220407;23;20255;-79
2024/02/15 07:30:33;;;;;;;2.70;2.30;;;;;;;;;;6247129;23;20165;-80
2024/02/15 07:33:00;;;;;;;7.90;2.60;;;;;;;;;;6220655;23;20695;-80
2024/02/15 07:35:27;;;;;;;2.73;2.30;;;;;;;;;;6221303;23;20252;-79
2024/02/15 07:37:58;;;;;;;2.77;2.43;;;;;;;;;;6247275;23;20165;-80
2024/02/15 07:40:30;;;;;;;2.87;2.03;;;;;;;;;;6247653;23;20204;-80
2024/02/15 07:42:58;;;;;;;3.30;2.10;;;;;;;;;;6221326;23;20161;-79
2024/02/15 07:45:28;;;;;;;2.43;1.90;;;;;;;;;;6247607;23;20212;-80
2024/02/15 07:47:55;;;;;;;2.37;1.93;;;;;;;;;;6219776;23;20169;-80
2024/02/15 07:50:22;;;;;;;2.53;2.00;;;;;;;;;;6247561;23;20164;-79
2024/02/15 07:52:49;;;;;;;2.20;1.87;;;;;;;;;;6247432;23;20184;-79
2024/02/15 07:55:24;;;;;;;3.13;2.00;;;;;;;;;;6221091;23;20161;-80
2024/02/15 07:57:55;;;;;;;3.20;1.90;;;;;;;;;;6247893;23;20252;-81
2024/02/15 08:00:23;;;;;;;3.07;1.70;;;;;;;;;;6247712;23;20161;-80
2024/02/15 08:02:53;;;;;;;3.30;1.90;;;;;;;;;;6247111;22;20211;-80
2024/02/15 08:05:29;;;;;;;2.43;2.23;;;;;;;;;;6220664;23;20176;-78
2024/02/15 08:07:59;;;;;;;2.40;2.17;;;;;;;;;;6190833;23;20169;-80
2024/02/15 08:10:39;;;;;;;3.13;2.10;;;;;;;;;;6211096;23;20653;-80
2024/02/15 08:13:06;;;;;;;2.37;2.17;;;;;;;;;;6196167;23;20540;-80
2024/02/15 08:15:33;;;;;;;3.17;2.37;;;;;;;;;;6247814;23;20165;-80
2024/02/15 08:18:05;;;;;;;3.03;2.03;;;;;;;;;;6222386;23;20268;-80
2024/02/15 08:20:47;;;;;;;4.10;2.40;;;;;;;;;;6221185;23;20169;-80
2024/02/15 08:23:20;;;;;;;3.43;2.30;;;;;;;;;;6221104;23;20179;-80
2024/02/15 08:25:47;;;;;;;3.53;2.20;;;;;;;;;;6247704;23;20620;-79
2024/02/15 08:28:15;;;;;;;3.43;2.10;;;;;;;;;;6248005;23;20206;-80
2024/02/15 08:30:42;;;;;;;3.00;2.10;;;;;;;;;;6221105;23;20188;-80
2024/02/15 08:33:10;;;;;;;4.20;2.20;;;;;;;;;;6195269;23;20193;-80
2024/02/15 08:35:44;;;;;;;2.93;1.90;;;;;;;;;;6247725;23;20153;-80
2024/02/15 08:38:13;;;;;;;3.67;2.10;;;;;;;;;;6221730;23;20155;-80
2024/02/15 08:40:44;;;;;;;2.83;1.73;;;;;;;;;;6221978;23;20153;-80
2024/02/15 08:43:12;;;;;;;4.03;2.40;;;;;;;;;;6247859;23;20172;-80
2024/02/15 08:45:39;;;;;;;3.57;1.90;;;;;;;;;;6248174;23;20165;-80
2024/02/15 08:48:10;;;;;;;2.97;1.90;;;;;;;;;;6197225;23;20216;-82
2024/02/15 08:50:37;;;;;;;5.70;2.10;;;;;;;;;;6221067;23;20215;-80
2024/02/15 08:53:11;;;;;;;3.00;2.00;;;;;;;;;;6248502;23;20172;-80
2024/02/15 08:55:38;;;;;;;2.63;1.90;;;;;;;;;;6196804;23;20173;-80
2024/02/15 08:58:10;;;;;;;2.57;1.87;;;;;;;;;;6197349;23;20163;-80
2024/02/15 09:00:44;;;;;;;3.13;1.87;;;;;;;;;;6248116;23;20172;-80
2024/02/15 09:03:16;;;;;;;3.43;2.10;;;;;;;;;;6223194;23;20194;-80
2024/02/15 09:05:44;;;;;;;6.03;2.23;;;;;;;;;;6248733;23;20163;-80
2024/02/15 09:08:25;;;;;;;2.43;2.10;;;;;;;;;;6226500;23;20151;-80
2024/02/15 09:10:53;;;;;;;2.03;1.83;;;;;;;;;;6223144;23;20163;-80
2024/02/15 09:13:24;;;;;;;2.80;2.53;;;;;;;;;;6249579;23;20202;-80
2024/02/15 09:15:56;;;;;;;5.60;3.97;;;;;;;;;;6222672;23;20606;-81
2024/02/15 09:18:23;;;;;;;3.53;2.50;;;;;;;;;;6223726;23;20171;-80
2024/02/15 09:20:55;;;;;;;2.90;2.10;;;;;;;;;;6249919;23;20605;-80
2024/02/15 09:23:25;;;;;;;2.20;2.00;;;;;;;;;;6250756;23;20159;-80
2024/02/15 09:25:56;;;;;;;2.83;1.90;;;;;;;;;;6251815;23;20232;-80
2024/02/15 09:28:23;;;;;;;3.37;2.03;;;;;;;;;;6251683;23;20162;-80
2024/02/15 09:30:53;;;;;;;2.63;2.43;;;;;;;;;;6224859;23;20176;-80
2024/02/15 09:33:21;;;;;;;2.50;2.10;;;;;;;;;;6224994;23;20238;-80
2024/02/15 09:35:58;;;;;;;2.83;2.43;;;;;;;;;;6225146;23;20702;-80
2024/02/15 09:38:38;;;;;;;3.73;2.57;;;;;;;;;;6228811;23;20221;-80
2024/02/15 09:41:08;;;;;;;3.83;2.30;;;;;;;;;;6252185;23;20163;-80
2024/02/15 09:43:40;;;;;;;3.07;2.10;;;;;;;;;;6220219;23;20172;-79
2024/02/15 09:46:12;;;;;;;3.13;2.83;;;;;;;;;;6252390;23;20152;-80
2024/02/15 09:48:51;;;;;;;7.27;3.43;;;;;;;;;;6224896;23;20179;-80
2024/02/15 09:51:31;;;;;;;2.97;2.67;;;;;;;;;;6201898;23;20192;-80
2024/02/15 09:53:59;;;;;;;2.73;2.20;;;;;;;;;;6226510;23;20202;-80
2024/02/15 09:56:31;;;;;;;2.73;2.40;;;;;;;;;;6252393;23;20179;-80
2024/02/15 09:59:07;;;;;;;2.50;2.30;;;;;;;;;;6204962;23;20175;-79
2024/02/15 10:01:43;;;;;;;3.23;2.50;;;;;;;;;;6254774;22;20144;-80
2024/02/15 10:04:18;;;;;;;2.90;2.50;;;;;;;;;;6229373;23;20172;-80
2024/02/15 10:06:47;;;;;;;3.80;2.50;;;;;;;;;;6253955;23;20173;-80
2024/02/15 10:09:33;;;;;;;2.90;2.37;;;;;;;;;;6255508;23;20169;-80
2024/02/15 10:12:06;;;;;;;2.70;2.50;;;;;;;;;;6256114;23;20148;-80
2024/02/15 10:14:36;;;;;;;3.57;2.60;;;;;;;;;;6229837;23;20181;-79
2024/02/15 10:17:11;;;;;;;2.63;2.43;;;;;;;;;;6229192;23;20215;-80
2024/02/15 10:19:43;;;;;;;2.17;1.97;;;;;;;;;;6228151;23;20170;-80
2024/02/15 10:22:15;;;;;;;2.87;2.30;;;;;;;;;;6255777;23;20146;-80
2024/02/15 10:24:42;;;;;;;2.20;2.00;;;;;;;;;;6203930;23;20197;-80
2024/02/15 10:27:13;;;;;;;2.10;1.83;;;;;;;;;;6230497;23;20629;-80
2024/02/15 10:29:45;;;;;;;2.13;1.90;;;;;;;;;;6228262;23;20195;-80
2024/02/15 10:32:16;;;;;;;1.90;1.80;;;;;;;;;;6229022;23;20219;-80
2024/02/15 10:34:44;;;;;;;3.93;1.73;;;;;;;;;;6227958;23;20242;-80
2024/02/15 10:37:27;;;;;;;3.13;2.00;;;;;;;;;;6205135;23;20169;-80
2024/02/15 10:40:16;;;;;;;2.50;1.80;;;;;;;;;;6202469;23;20188;-79
2024/02/15 10:42:51;;;;;;;1.97;1.77;;;;;;;;;;6227902;23;20157;-80
2024/02/15 10:45:22;;;;;;;1.90;1.80;;;;;;;;;;6254777;23;20145;-80
2024/02/15 10:47:52;;;;;;;2.47;1.93;;;;;;;;;;6229929;23;20156;-80
2024/02/15 10:50:22;;;;;;;2.40;2.20;;;;;;;;;;6255908;23;20157;-79
2024/02/15 10:52:56;;;;;;;2.70;2.33;;;;;;;;;;6254619;23;20185;-80
2024/02/15 10:55:59;;;;;;;2.40;2.20;;;;;;;;;;6254024;23;20193;-79
2024/02/15 10:58:35;;;;;;;2.40;2.20;;;;;;;;;;6229503;23;20157;-79
2024/02/15 11:01:16;;;;;;;2.60;2.40;;;;;;;;;;6255585;23;20152;-80
2024/02/15 11:03:56;;;;;;;3.00;2.70;;;;;;;;;;6227337;22;20200;-79
2024/02/15 11:06:35;;;;;;;2.90;2.40;;;;;;;;;;6225532;23;20153;-79
2024/02/15 11:09:06;;;;;;;3.07;2.40;;;;;;;;;;6224977;23;20169;-79
2024/02/15 11:11:39;;;;;;;2.47;2.27;;;;;;;;;;6225417;23;20151;-80
2024/02/15 11:14:34;;;;;;;2.73;2.50;;;;;;;;;;6224592;23;20193;-81
2024/02/15 11:17:06;;;;;;;3.37;2.13;;;;;;;;;;6158849;23;20170;-79
2024/02/15 11:19:33;;;;;;;3.20;2.10;;;;;;;;;;6196564;23;20253;-79
2024/02/15 11:22:10;;;;;;;2.80;2.10;;;;;;;;;;6192870;23;20203;-80
2024/02/15 11:24:47;;;;;;;2.43;2.00;;;;;;;;;;6190761;23;20170;-82
2024/02/15 11:27:24;;;;;;;2.07;1.87;;;;;;;;;;6190187;23;20177;-82
2024/02/15 11:30:04;;;;;;;2.50;1.60;;;;;;;;;;6217433;23;20150;-82
2024/02/15 11:32:48;;;;;;;2.40;1.70;;;;;;;;;;6190781;23;20154;-82
2024/02/15 11:35:17;;;;;;;2.13;1.93;;;;;;;;;;6190278;23;20265;-84
2024/02/15 11:37:52;;;;;;;2.60;1.80;;;;;;;;;;6216471;23;20158;-83
2024/02/15 11:40:27;;;;;;;2.03;1.80;;;;;;;;;;6165486;23;20181;-83
2024/02/15 11:43:00;;;;;;;2.77;1.60;;;;;;;;;;6216112;23;20150;-83
2024/02/15 11:45:40;;;;;;;1.90;1.80;;;;;;;;;;6215993;23;20170;-83
2024/02/15 11:48:14;;;;;;;2.17;1.97;;;;;;;;;;6216041;23;20172;-83
2024/02/15 11:50:41;;;;;;;2.00;1.80;;;;;;;;;;6215889;23;20593;-84
2024/02/15 11:53:09;;;;;;;2.27;1.90;;;;;;;;;;6215987;23;20280;-84
2024/02/15 11:55:39;;;;;;;5.17;2.00;;;;;;;;;;6189144;23;20186;-83
2024/02/15 12:20:35;;;;;;;1.53;1.37;;;;;;;;;;6243599;23;20151;-83
2024/02/15 12:23:06;;;;;;;1.90;1.50;;;;;;;;;;6216614;23;20174;-83
2024/02/15 12:25:36;;;;;;;1.20;1.10;;;;;;;;;;6217203;23;20232;-85
2024/02/15 12:28:04;;;;;;;1.70;1.60;;;;;;;;;;6242922;23;20616;-84
2024/02/15 12:30:36;;;;;;;1.77;1.33;;;;;;;;;;6230449;23;20164;-84
2024/02/15 12:33:11;;;;;;;1.43;1.03;;;;;;;;;;6243485;23;20151;-84
2024/02/15 12:35:42;;;;;;;1.53;1.40;;;;;;;;;;6243034;23;20176;-85
2024/02/15 12:38:12;;;;;;;1.40;1.27;;;;;;;;;;6217026;23;20165;-83
2024/02/15 12:40:47;;;;;;;1.40;1.13;;;;;;;;;;6243229;23;20228;-83
2024/02/15 12:43:40;;;;;;;1.43;1.10;;;;;;;;;;6243105;23;20171;-85
2024/02/15 12:46:10;;;;;;;1.33;1.00;;;;;;;;;;6243512;23;20251;-84
2024/02/15 12:48:42;;;;;;;1.20;1.03;;;;;;;;;;6242973;23;20223;-83
2024/02/15 12:51:21;;;;;;;1.30;1.20;;;;;;;;;;6216336;23;20620;-85
2024/02/15 12:53:52;;;;;;;1.80;1.43;;;;;;;;;;6192050;23;20683;-83
2024/02/15 12:56:24;;;;;;;1.73;1.60;;;;;;;;;;6243199;23;20171;-84
2024/02/15 12:58:55;;;;;;;2.67;1.37;;;;;;;;;;6242646;23;20179;-83
2024/02/15 13:01:21;;;;;;;3.83;1.93;;;;;;;;;;6242875;23;20238;-82
2024/02/15 13:03:49;;;;;;;2.23;1.70;;;;;;;;;;6242479;22;20644;-83
2024/02/15 13:06:23;;;;;;;1.87;1.70;;;;;;;;;;6188719;23;20557;-83
2024/02/15 13:09:12;;;;;;;1.60;1.50;;;;;;;;;;6186671;23;20200;-85
2024/02/15 13:11:46;;;;;;;2.03;1.83;;;;;;;;;;6232947;23;20197;-83
2024/02/15 13:14:16;;;;;;;2.10;1.60;;;;;;;;;;6215709;23;20265;-85
2024/02/15 13:16:46;;;;;;;3.63;2.23;;;;;;;;;;6242675;23;20233;-83
2024/02/15 13:19:40;;;;;;;2.37;1.90;;;;;;;;;;6216462;23;20167;-84
2024/02/15 13:23:00;;;;;;;2.57;1.97;;;;;;;;;;6224779;23;20151;-84
2024/02/15 13:25:28;;;;;;;3.37;1.60;;;;;;;;;;6215782;23;20164;-84
2024/02/15 13:27:57;;;;;;;3.93;1.77;;;;;;;;;;6216416;23;20697;-85
2024/02/15 13:30:27;;;;;;;2.17;1.40;;;;;;;;;;6215992;23;20162;-83
2024/02/15 13:32:56;;;;;;;1.73;1.63;;;;;;;;;;6241897;23;20228;-84
2024/02/15 13:35:24;;;;;;;2.10;1.87;;;;;;;;;;6215515;23;20203;-83
2024/02/15 13:37:54;;;;;;;2.13;1.93;;;;;;;;;;6215339;23;20172;-84
2024/02/15 13:40:23;;;;;;;2.10;1.80;;;;;;;;;;6215634;23;20163;-83
2024/02/15 13:42:58;;;;;;;2.23;1.87;;;;;;;;;;6242339;23;20184;-83
2024/02/15 13:45:29;;;;;;;3.00;1.80;;;;;;;;;;6242403;23;20174;-83
2024/02/15 13:48:00;;;;;;;3.77;1.90;;;;;;;;;;6242443;23;20163;-83
2024/02/15 13:50:31;;;;;;;2.53;1.97;;;;;;;;;;6242564;23;20230;-84
2024/02/15 13:53:01;;;;;;;2.33;1.50;;;;;;;;;;6242483;23;20236;-85
2024/02/15 13:55:41;;;;;;;2.07;1.60;;;;;;;;;;6242185;23;20182;-83
2024/02/15 13:58:14;;;;;;;1.93;1.53;;;;;;;;;;6215609;23;20178;-82
2024/02/15 14:00:47;;;;;;;1.60;1.50;;;;;;;;;;6242562;23;20155;-84
2024/02/15 14:03:18;;;;;;;1.97;1.77;;;;;;;;;;6241757;22;20198;-83
2024/02/15 14:05:47;;;;;;;3.13;2.20;;;;;;;;;;6242251;23;20174;-83
2024/02/15 14:08:22;;;;;;;2.80;2.60;;;;;;;;;;6242175;23;20185;-84
2024/02/15 14:10:52;;;;;;;3.67;3.23;;;;;;;;;;6215427;23;20195;-85
2024/02/15 14:13:21;;;;;;;3.80;2.90;;;;;;;;;;6190556;23;20166;-85
2024/02/15 14:15:48;;;;;;;3.93;3.47;;;;;;;;;;6215234;23;20645;-83
2024/02/15 14:18:19;;;;;;;3.50;3.20;;;;;;;;;;6242138;23;20600;-82
2024/02/15 14:20:55;;;;;;;3.80;3.50;;;;;;;;;;6242072;23;20199;-84
2024/02/15 14:23:27;;;;;;;4.83;3.43;;;;;;;;;;6242472;23;20201;-86
2024/02/15 14:26:00;;;;;;;4.20;3.80;;;;;;;;;;6215975;23;20174;-82
2024/02/15 14:28:28;;;;;;;5.20;3.93;;;;;;;;;;6242632;23;20225;-82
2024/02/15 14:33:44;;;;;;;4.20;3.80;;;;;;;;;;6242963;23;20164;-83
2024/02/15 14:36:17;;;;;;;6.23;4.10;;;;;;;;;;6242635;23;20252;-83
2024/02/15 14:38:49;;;;;;;4.50;4.10;;;;;;;;;;6242453;23;20216;-84
2024/02/15 14:41:19;;;;;;;4.10;3.70;;;;;;;;;;6217362;23;20191;-83
2024/02/15 14:43:59;;;;;;;5.37;3.70;;;;;;;;;;6244256;23;20160;-84
2024/02/15 14:46:40;;;;;;;5.03;4.00;;;;;;;;;;6218307;23;20204;-80
2024/02/15 14:49:08;;;;;;;4.83;4.30;;;;;;;;;;6246398;23;20145;-81
2024/02/15 14:51:36;;;;;;;4.40;3.77;;;;;;;;;;6246249;23;20161;-81
2024/02/15 14:54:06;;;;;;;4.30;3.57;;;;;;;;;;6247049;23;20181;-81
2024/02/15 14:56:42;;;;;;;3.73;3.33;;;;;;;;;;6248008;23;20181;-80
2024/02/15 14:59:10;;;;;;;4.60;3.53;;;;;;;;;;6247333;23;20165;-80
2024/02/15 15:01:37;;;;;;;3.90;3.50;;;;;;;;;;6195310;23;20180;-79
2024/02/15 15:04:06;;;;;;;3.77;2.97;;;;;;;;;;6221203;23;20201;-79
2024/02/15 15:12:45;;;;;;;3.97;3.57;;;;;;;;;;6233038;23;20169;-79
2024/02/15 15:15:14;;;;;;;5.77;3.57;;;;;;;;;;6226811;23;20207;-79
2024/02/15 15:17:51;;;;;;;3.60;3.30;;;;;;;;;;6253519;23;20153;-80
2024/02/15 15:20:26;;;;;;;4.83;3.60;;;;;;;;;;6206676;23;20160;-79
2024/02/15 15:23:06;;;;;;;3.53;3.23;;;;;;;;;;6229371;23;20164;-81
2024/02/15 15:25:40;;;;;;;4.83;4.00;;;;;;;;;;6253016;23;20141;-79
2024/02/15 15:28:07;;;;;;;4.43;3.70;;;;;;;;;;6251891;23;20212;-79
2024/02/15 15:30:34;;;;;;;5.47;4.00;;;;;;;;;;6224997;23;20169;-79
2024/02/15 15:33:01;;;;;;;5.97;3.97;;;;;;;;;;6224866;23;20176;-79
2024/02/15 15:35:42;;;;;;;4.10;3.60;;;;;;;;;;6225119;22;20188;-79
2024/02/15 15:38:12;;;;;;;4.33;3.93;;;;;;;;;;6223468;23;20169;-79
2024/02/15 15:40:40;;;;;;;4.60;3.83;;;;;;;;;;6199406;23;20173;-79
2024/02/15 15:43:07;;;;;;;4.80;4.30;;;;;;;;;;6224299;23;20163;-79
2024/02/15 15:45:35;;;;;;;4.90;4.40;;;;;;;;;;6250847;23;20160;-79
2024/02/15 15:48:06;;;;;;;5.50;4.90;;;;;;;;;;6250171;23;20192;-79
2024/02/15 15:50:35;;;;;;;5.43;4.93;;;;;;;;;;6223036;23;20172;-79
2024/02/15 15:53:07;;;;;;;6.20;5.60;;;;;;;;;;6250365;23;20576;-79